createdAt,value
2017-03-03T00:00:30.465Z,20.06
2017-03-03T00:01:11.197Z,20.08
2017-03-03T00:01:51.857Z,20.05
2017-03-03T00:02:32.498Z,20.12
2017-03-03T00:03:13.149Z,20.06
2017-03-03T00:03:53.793Z,20.03
2017-03-03T00:04:34.436Z,20.03
2017-03-03T00:05:15.100Z,20.08
2017-03-03T00:05:55.728Z,20.09
2017-03-03T00:06:36.368Z,20.06
2017-03-03T00:07:17.057Z,20.13
2017-03-03T00:07:57.685Z,20.12
2017-03-03T00:08:38.325Z,20.15
2017-03-03T00:09:19.047Z,20.13
2017-03-03T00:09:59.698Z,20.16
2017-03-03T00:10:40.384Z,20.16
2017-03-03T00:11:21.021Z,20.09
2017-03-03T00:12:01.676Z,20.1
2017-03-03T00:12:42.359Z,20.05
2017-03-03T00:13:23.063Z,20.05
2017-03-03T00:14:03.758Z,20.15
2017-03-03T00:14:44.396Z,20.09
2017-03-03T00:15:25.110Z,20.16
2017-03-03T00:16:05.759Z,20.15
2017-03-03T00:16:46.399Z,20.12
2017-03-03T00:17:27.057Z,20.18
2017-03-03T00:18:07.689Z,20.13
2017-03-03T00:18:48.323Z,20.02
2017-03-03T00:19:29.043Z,20.13
2017-03-03T00:20:09.703Z,20.15
2017-03-03T00:20:50.383Z,20.13
2017-03-03T00:21:31.053Z,20.1
2017-03-03T00:22:11.734Z,20.12
2017-03-03T00:22:52.407Z,20.05
2017-03-03T00:23:33.041Z,20.1
2017-03-03T00:24:13.763Z,20.1
2017-03-03T00:24:55.156Z,20.13
2017-03-03T00:25:35.895Z,20.12
2017-03-03T00:26:16.527Z,20.2
2017-03-03T00:26:57.221Z,20.13
2017-03-03T00:27:37.881Z,20.13
2017-03-03T00:28:19.440Z,20.05
2017-03-03T00:29:00.073Z,20.13
2017-03-03T00:29:40.722Z,20.15
2017-03-03T00:30:21.351Z,20.12
2017-03-03T00:31:02.057Z,20.13
2017-03-03T00:31:42.753Z,20
2017-03-03T00:32:23.396Z,20.12
2017-03-03T00:33:04.042Z,20.12
2017-03-03T00:33:44.674Z,20.09
2017-03-03T00:34:25.321Z,20.05
2017-03-03T00:35:05.951Z,20.09
2017-03-03T00:35:46.584Z,20.15
2017-03-03T00:36:27.242Z,20.05
2017-03-03T00:37:07.903Z,20.12
2017-03-03T00:37:48.526Z,20.1
2017-03-03T00:38:29.168Z,20.18
2017-03-03T00:39:09.808Z,20.13
2017-03-03T00:39:50.451Z,20.15
2017-03-03T00:40:31.109Z,20.15
2017-03-03T00:41:11.855Z,20.03
2017-03-03T00:41:52.481Z,20.13
2017-03-03T00:42:33.181Z,20.12
2017-03-03T00:43:13.879Z,20.08
2017-03-03T00:43:54.588Z,20.06
2017-03-03T00:44:35.241Z,20.18
2017-03-03T00:45:15.883Z,20.18
2017-03-03T00:45:56.567Z,20.09
2017-03-03T00:46:37.203Z,20.23
2017-03-03T00:47:17.837Z,20.1
2017-03-03T00:47:58.529Z,20.13
2017-03-03T00:48:39.160Z,20.05
2017-03-03T00:49:19.802Z,20.05
2017-03-03T00:50:00.444Z,20.08
2017-03-03T00:50:41.076Z,20.1
2017-03-03T00:51:21.710Z,20.06
2017-03-03T00:52:02.378Z,20.09
2017-03-03T00:52:43.020Z,20.08
2017-03-03T00:53:23.668Z,20.21
2017-03-03T00:54:04.345Z,20.12
2017-03-03T00:54:44.973Z,20.08
2017-03-03T00:55:25.668Z,20.1
2017-03-03T00:56:06.335Z,20.05
2017-03-03T00:56:46.979Z,20.12
2017-03-03T00:57:27.670Z,20.1
2017-03-03T00:58:08.307Z,20.02
2017-03-03T00:58:48.945Z,20.05
2017-03-03T00:59:29.615Z,20.02
2017-03-03T01:00:10.307Z,20.1
2017-03-03T01:00:51.009Z,20.03
2017-03-03T01:01:31.646Z,20.13
2017-03-03T01:02:12.343Z,20.1
2017-03-03T01:02:52.988Z,20.13
2017-03-03T01:03:33.624Z,20.09
2017-03-03T01:04:14.262Z,20.12
2017-03-03T01:04:54.985Z,20.03
2017-03-03T01:05:35.620Z,20.06
2017-03-03T01:06:16.266Z,20.1
2017-03-03T01:06:56.989Z,20.15
2017-03-03T01:07:37.685Z,20.09
2017-03-03T01:08:18.350Z,20.2
2017-03-03T01:08:59.057Z,20.12
2017-03-03T01:09:39.691Z,20.05
2017-03-03T01:10:20.345Z,20.02
2017-03-03T01:11:01.007Z,20.15
2017-03-03T01:11:41.702Z,20.15
2017-03-03T01:12:22.357Z,20.05
2017-03-03T01:13:03.096Z,20.02
2017-03-03T01:13:43.776Z,20.08
2017-03-03T01:14:24.518Z,20.1
2017-03-03T01:15:05.150Z,20.1
2017-03-03T01:15:45.780Z,20.08
2017-03-03T01:16:26.529Z,20.09
2017-03-03T01:17:07.180Z,20.02
2017-03-03T01:17:47.825Z,20
2017-03-03T01:18:28.553Z,20.09
2017-03-03T01:19:09.233Z,20.02
2017-03-03T01:19:49.860Z,20.03
2017-03-03T01:20:30.521Z,20.03
2017-03-03T01:21:11.144Z,20.06
2017-03-03T01:21:51.790Z,20.06
2017-03-03T01:22:32.500Z,19.97
2017-03-03T01:23:13.135Z,20.03
2017-03-03T01:23:53.764Z,20.13
2017-03-03T01:24:34.460Z,20.1
2017-03-03T01:25:15.166Z,20.1
2017-03-03T01:25:55.801Z,20.12
2017-03-03T01:26:36.484Z,20.13
2017-03-03T01:27:17.110Z,20.09
2017-03-03T01:27:57.738Z,20.05
2017-03-03T01:28:38.476Z,20.05
2017-03-03T01:29:19.115Z,20.06
2017-03-03T01:29:59.762Z,20.06
2017-03-03T01:30:40.393Z,20.09
2017-03-03T01:31:21.054Z,20.09
2017-03-03T01:32:01.714Z,20
2017-03-03T01:32:42.371Z,20.1
2017-03-03T01:33:23.063Z,20.06
2017-03-03T01:34:03.712Z,20.03
2017-03-03T01:34:44.360Z,20.1
2017-03-03T01:35:25.047Z,20.05
2017-03-03T01:36:05.758Z,20.08
2017-03-03T01:36:46.399Z,20.08
2017-03-03T01:37:27.187Z,20
2017-03-03T01:38:07.822Z,20.03
2017-03-03T01:38:48.459Z,20.05
2017-03-03T01:39:29.085Z,20.06
2017-03-03T01:40:09.782Z,20
2017-03-03T01:40:50.444Z,20.03
2017-03-03T01:41:31.089Z,20.02
2017-03-03T01:42:11.788Z,20.03
2017-03-03T01:42:52.487Z,20.02
2017-03-03T01:43:33.110Z,20
2017-03-03T01:44:13.757Z,20.03
2017-03-03T01:44:54.414Z,20.03
2017-03-03T01:45:35.040Z,20.06
2017-03-03T01:46:15.674Z,20
2017-03-03T01:46:56.334Z,19.91
2017-03-03T01:47:36.963Z,19.98
2017-03-03T01:48:17.588Z,20
2017-03-03T01:48:58.221Z,20.03
2017-03-03T01:49:38.845Z,20.13
2017-03-03T01:50:19.524Z,19.97
2017-03-03T01:51:00.145Z,20.05
2017-03-03T01:51:40.772Z,20.09
2017-03-03T01:52:21.434Z,20.09
2017-03-03T01:53:02.109Z,20.06
2017-03-03T01:53:42.745Z,20.03
2017-03-03T01:54:23.394Z,20.1
2017-03-03T01:55:04.079Z,20
2017-03-03T01:55:44.708Z,20.12
2017-03-03T01:56:25.457Z,20.09
2017-03-03T01:57:06.174Z,20.06
2017-03-03T01:57:46.806Z,20.05
2017-03-03T01:58:27.447Z,20.06
2017-03-03T01:59:08.090Z,20.06
2017-03-03T01:59:48.720Z,20.03
2017-03-03T02:00:29.351Z,20.02
2017-03-03T02:01:10.084Z,20.05
2017-03-03T02:01:50.741Z,20.03
2017-03-03T02:02:31.372Z,20.08
2017-03-03T02:03:11.998Z,20.05
2017-03-03T02:03:52.709Z,20.12
2017-03-03T02:04:33.346Z,20
2017-03-03T02:05:14.001Z,20
2017-03-03T02:05:54.662Z,20
2017-03-03T02:06:35.285Z,20.03
2017-03-03T02:07:16.060Z,20.05
2017-03-03T02:07:56.688Z,20.03
2017-03-03T02:08:37.425Z,20.09
2017-03-03T02:09:18.067Z,20.08
2017-03-03T02:09:58.714Z,20.05
2017-03-03T02:10:39.342Z,20.06
2017-03-03T02:11:19.984Z,20
2017-03-03T02:12:00.642Z,19.98
2017-03-03T02:12:41.278Z,20.05
2017-03-03T02:13:21.909Z,20.1
2017-03-03T02:14:02.575Z,20.1
2017-03-03T02:14:43.203Z,20.1
2017-03-03T02:15:23.839Z,20.05
2017-03-03T02:16:04.501Z,20.09
2017-03-03T02:16:45.220Z,20.02
2017-03-03T02:17:25.853Z,20.08
2017-03-03T02:18:06.483Z,19.9
2017-03-03T02:18:47.112Z,19.94
2017-03-03T02:19:27.750Z,19.93
2017-03-03T02:20:08.380Z,19.98
2017-03-03T02:20:49.082Z,19.97
2017-03-03T02:21:29.726Z,20
2017-03-03T02:22:10.474Z,19.94
2017-03-03T02:22:51.136Z,19.93
2017-03-03T02:23:31.858Z,19.94
2017-03-03T02:24:12.504Z,19.95
2017-03-03T02:24:53.155Z,19.91
2017-03-03T02:25:33.839Z,19.93
2017-03-03T02:26:14.467Z,19.95
2017-03-03T02:26:55.140Z,20.02
2017-03-03T02:27:35.802Z,19.95
2017-03-03T02:28:16.447Z,20.03
2017-03-03T02:28:57.069Z,20.05
2017-03-03T02:29:37.707Z,20.05
2017-03-03T02:30:18.337Z,20.08
2017-03-03T02:30:58.966Z,20
2017-03-03T02:31:39.653Z,19.97
2017-03-03T02:32:20.279Z,19.9
2017-03-03T02:33:00.908Z,19.94
2017-03-03T02:33:41.536Z,19.95
2017-03-03T02:34:22.167Z,19.94
2017-03-03T02:35:02.798Z,19.93
2017-03-03T02:35:43.456Z,20.02
2017-03-03T02:36:24.090Z,19.95
2017-03-03T02:37:04.738Z,19.97
2017-03-03T02:37:45.442Z,20
2017-03-03T02:38:26.070Z,19.88
2017-03-03T02:39:06.744Z,19.9
2017-03-03T02:39:47.396Z,19.94
2017-03-03T02:40:28.018Z,19.94
2017-03-03T02:41:08.656Z,19.76
2017-03-03T02:41:49.317Z,19.95
2017-03-03T02:42:29.954Z,19.97
2017-03-03T02:43:10.647Z,19.93
2017-03-03T02:43:51.267Z,20
2017-03-03T02:44:31.915Z,19.95
2017-03-03T02:45:12.544Z,19.91
2017-03-03T02:45:53.314Z,19.95
2017-03-03T02:46:33.973Z,19.9
2017-03-03T02:47:14.598Z,19.94
2017-03-03T02:47:55.231Z,19.94
2017-03-03T02:48:35.865Z,19.93
2017-03-03T02:49:16.511Z,19.94
2017-03-03T02:49:57.201Z,19.93
2017-03-03T02:50:37.844Z,19.97
2017-03-03T02:51:18.474Z,19.93
2017-03-03T02:51:59.161Z,19.91
2017-03-03T02:52:39.784Z,19.97
2017-03-03T02:53:20.410Z,19.9
2017-03-03T02:54:01.156Z,19.95
2017-03-03T02:54:41.838Z,19.9
2017-03-03T02:55:22.470Z,19.93
2017-03-03T02:56:03.212Z,19.93
2017-03-03T02:56:43.863Z,19.97
2017-03-03T02:57:24.591Z,19.95
2017-03-03T02:58:05.240Z,19.97
2017-03-03T02:58:45.887Z,19.95
2017-03-03T02:59:26.510Z,19.94
2017-03-03T03:00:07.140Z,19.94
2017-03-03T03:00:47.810Z,19.95
2017-03-03T03:01:28.462Z,19.95
2017-03-03T03:02:09.078Z,19.94
2017-03-03T03:02:49.753Z,19.91
2017-03-03T03:03:30.459Z,20
2017-03-03T03:04:11.100Z,19.87
2017-03-03T03:04:51.729Z,19.9
2017-03-03T03:05:32.416Z,19.94
2017-03-03T03:06:13.051Z,19.94
2017-03-03T03:06:53.670Z,19.93
2017-03-03T03:07:34.356Z,19.95
2017-03-03T03:08:14.979Z,19.95
2017-03-03T03:08:55.662Z,19.97
2017-03-03T03:09:36.339Z,19.87
2017-03-03T03:10:17.059Z,19.91
2017-03-03T03:10:57.697Z,19.97
2017-03-03T03:11:38.356Z,19.9
2017-03-03T03:12:18.984Z,19.87
2017-03-03T03:12:59.613Z,19.95
2017-03-03T03:13:40.354Z,19.83
2017-03-03T03:14:21.042Z,19.87
2017-03-03T03:15:01.669Z,19.97
2017-03-03T03:15:42.299Z,19.83
2017-03-03T03:16:22.968Z,19.8
2017-03-03T03:17:03.596Z,19.86
2017-03-03T03:17:44.223Z,19.86
2017-03-03T03:18:24.860Z,19.91
2017-03-03T03:19:05.483Z,19.95
2017-03-03T03:19:46.124Z,19.93
2017-03-03T03:20:26.832Z,19.98
2017-03-03T03:21:07.462Z,19.97
2017-03-03T03:21:48.096Z,19.84
2017-03-03T03:22:28.768Z,19.98
2017-03-03T03:23:09.396Z,19.93
2017-03-03T03:23:50.051Z,19.88
2017-03-03T03:24:30.678Z,19.93
2017-03-03T03:25:11.306Z,19.94
2017-03-03T03:25:51.935Z,19.8
2017-03-03T03:26:32.633Z,19.97
2017-03-03T03:27:13.263Z,20
2017-03-03T03:27:53.900Z,19.97
2017-03-03T03:28:34.548Z,19.94
2017-03-03T03:29:15.174Z,19.98
2017-03-03T03:29:55.829Z,19.93
2017-03-03T03:30:36.462Z,19.97
2017-03-03T03:31:17.097Z,19.9
2017-03-03T03:31:57.756Z,19.94
2017-03-03T03:32:38.384Z,19.97
2017-03-03T03:33:19.023Z,19.83
2017-03-03T03:33:59.683Z,19.88
2017-03-03T03:34:40.396Z,19.91
2017-03-03T03:35:21.038Z,19.86
2017-03-03T03:36:01.657Z,19.9
2017-03-03T03:36:42.388Z,19.97
2017-03-03T03:37:23.087Z,19.9
2017-03-03T03:38:03.726Z,19.91
2017-03-03T03:38:45.004Z,19.84
2017-03-03T03:39:25.647Z,19.86
2017-03-03T03:40:06.331Z,19.86
2017-03-03T03:40:46.975Z,19.93
2017-03-03T03:41:27.600Z,19.87
2017-03-03T03:42:08.322Z,19.84
2017-03-03T03:42:48.943Z,19.8
2017-03-03T03:43:29.590Z,19.8
2017-03-03T03:44:10.222Z,19.94
2017-03-03T03:44:50.948Z,19.91
2017-03-03T03:45:31.595Z,19.97
2017-03-03T03:46:12.226Z,19.93
2017-03-03T03:46:52.851Z,19.91
2017-03-03T03:47:33.474Z,19.93
2017-03-03T03:48:14.104Z,19.91
2017-03-03T03:48:54.761Z,19.95
2017-03-03T03:49:35.405Z,19.91
2017-03-03T03:50:16.101Z,19.97
2017-03-03T03:50:56.832Z,20
2017-03-03T03:51:37.512Z,19.91
2017-03-03T03:52:18.148Z,19.83
2017-03-03T03:52:58.879Z,19.97
2017-03-03T03:53:39.620Z,19.95
2017-03-03T03:54:22.397Z,19.86
2017-03-03T03:55:03.039Z,19.97
2017-03-03T03:55:43.751Z,19.94
2017-03-03T03:56:24.386Z,19.93
2017-03-03T03:57:05.016Z,19.91
2017-03-03T03:57:45.701Z,19.94
2017-03-03T03:58:26.383Z,19.87
2017-03-03T03:59:07.014Z,19.97
2017-03-03T03:59:47.644Z,19.8
2017-03-03T04:00:28.350Z,19.91
2017-03-03T04:01:08.972Z,19.79
2017-03-03T04:01:49.670Z,19.83
2017-03-03T04:02:30.382Z,19.86
2017-03-03T04:03:11.023Z,19.87
2017-03-03T04:03:51.648Z,19.86
2017-03-03T04:04:32.336Z,19.9
2017-03-03T04:05:12.975Z,19.86
2017-03-03T04:05:53.598Z,19.97
2017-03-03T04:06:34.264Z,19.9
2017-03-03T04:07:14.966Z,19.97
2017-03-03T04:07:55.606Z,19.91
2017-03-03T04:08:36.286Z,19.97
2017-03-03T04:09:16.933Z,19.93
2017-03-03T04:09:57.558Z,19.94
2017-03-03T04:10:38.229Z,19.95
2017-03-03T04:11:18.950Z,19.94
2017-03-03T04:11:59.579Z,19.95
2017-03-03T04:12:40.301Z,19.79
2017-03-03T04:13:20.938Z,19.86
2017-03-03T04:14:01.573Z,19.97
2017-03-03T04:14:42.195Z,19.93
2017-03-03T04:15:22.960Z,19.86
2017-03-03T04:16:03.692Z,19.93
2017-03-03T04:16:44.326Z,19.83
2017-03-03T04:17:24.949Z,19.87
2017-03-03T04:18:05.670Z,19.86
2017-03-03T04:18:46.300Z,19.95
2017-03-03T04:19:26.964Z,19.8
2017-03-03T04:20:07.621Z,19.84
2017-03-03T04:20:48.257Z,19.9
2017-03-03T04:21:28.885Z,19.95
2017-03-03T04:22:09.556Z,19.8
2017-03-03T04:22:50.182Z,19.76
2017-03-03T04:23:30.815Z,19.76
2017-03-03T04:24:11.488Z,19.76
2017-03-03T04:24:52.131Z,19.8
2017-03-03T04:25:32.790Z,19.86
2017-03-03T04:26:13.534Z,19.84
2017-03-03T04:26:54.185Z,19.79
2017-03-03T04:27:34.804Z,19.78
2017-03-03T04:28:15.494Z,19.83
2017-03-03T04:28:56.142Z,19.84
2017-03-03T04:29:36.766Z,19.86
2017-03-03T04:30:17.425Z,19.79
2017-03-03T04:30:58.054Z,19.79
2017-03-03T04:31:38.684Z,19.78
2017-03-03T04:32:19.347Z,19.84
2017-03-03T04:32:59.982Z,19.84
2017-03-03T04:33:40.612Z,19.79
2017-03-03T04:34:21.312Z,19.8
2017-03-03T04:35:02.023Z,19.78
2017-03-03T04:35:42.670Z,19.79
2017-03-03T04:36:23.429Z,19.79
2017-03-03T04:37:04.138Z,19.83
2017-03-03T04:37:44.846Z,19.79
2017-03-03T04:38:25.484Z,19.78
2017-03-03T04:39:06.111Z,19.8
2017-03-03T04:39:46.749Z,19.78
2017-03-03T04:40:27.378Z,19.79
2017-03-03T04:41:08.057Z,19.79
2017-03-03T04:41:48.757Z,19.84
2017-03-03T04:42:29.406Z,19.88
2017-03-03T04:43:10.135Z,19.93
2017-03-03T04:43:50.812Z,19.84
2017-03-03T04:44:31.442Z,19.91
2017-03-03T04:45:12.076Z,19.83
2017-03-03T04:45:52.740Z,19.83
2017-03-03T04:46:33.476Z,19.78
2017-03-03T04:47:14.145Z,19.79
2017-03-03T04:47:54.843Z,19.83
2017-03-03T04:48:35.510Z,19.79
2017-03-03T04:49:16.165Z,19.78
2017-03-03T04:49:56.841Z,19.9
2017-03-03T04:50:37.514Z,19.8
2017-03-03T04:51:18.139Z,19.8
2017-03-03T04:51:58.849Z,19.87
2017-03-03T04:52:39.475Z,19.87
2017-03-03T04:53:20.100Z,19.79
2017-03-03T04:54:00.769Z,19.83
2017-03-03T04:54:41.489Z,19.79
2017-03-03T04:55:22.174Z,19.8
2017-03-03T04:56:02.806Z,19.86
2017-03-03T04:56:43.434Z,19.8
2017-03-03T04:57:24.056Z,19.91
2017-03-03T04:58:04.683Z,19.87
2017-03-03T04:58:45.402Z,19.84
2017-03-03T04:59:26.054Z,19.79
2017-03-03T05:00:06.687Z,19.75
2017-03-03T05:00:47.311Z,19.76
2017-03-03T05:01:27.993Z,19.8
2017-03-03T05:02:08.623Z,19.84
2017-03-03T05:02:49.255Z,19.79
2017-03-03T05:03:29.880Z,19.8
2017-03-03T05:04:10.519Z,19.83
2017-03-03T05:04:51.172Z,19.9
2017-03-03T05:05:31.849Z,19.8
2017-03-03T05:06:12.476Z,19.76
2017-03-03T05:06:53.114Z,19.86
2017-03-03T05:07:33.780Z,19.83
2017-03-03T05:08:14.423Z,19.76
2017-03-03T05:08:55.042Z,19.78
2017-03-03T05:09:35.776Z,19.83
2017-03-03T05:10:16.404Z,19.83
2017-03-03T05:10:57.094Z,19.84
2017-03-03T05:11:37.797Z,19.83
2017-03-03T05:12:18.434Z,19.86
2017-03-03T05:12:59.065Z,19.83
2017-03-03T05:13:39.705Z,19.78
2017-03-03T05:14:20.389Z,19.84
2017-03-03T05:15:01.084Z,19.76
2017-03-03T05:15:41.710Z,19.83
2017-03-03T05:16:22.403Z,19.86
2017-03-03T05:17:03.043Z,19.84
2017-03-03T05:17:43.675Z,19.83
2017-03-03T05:18:24.360Z,19.79
2017-03-03T05:19:04.987Z,19.86
2017-03-03T05:19:45.618Z,19.84
2017-03-03T05:20:26.358Z,19.78
2017-03-03T05:21:06.987Z,19.75
2017-03-03T05:21:47.691Z,19.76
2017-03-03T05:22:28.339Z,19.78
2017-03-03T05:23:09.036Z,19.79
2017-03-03T05:23:49.667Z,19.75
2017-03-03T05:24:30.300Z,19.79
2017-03-03T05:25:10.974Z,19.75
2017-03-03T05:25:51.616Z,19.78
2017-03-03T05:26:32.252Z,19.78
2017-03-03T05:27:12.876Z,19.75
2017-03-03T05:27:53.515Z,19.78
2017-03-03T05:28:34.148Z,19.86
2017-03-03T05:29:14.868Z,19.76
2017-03-03T05:29:55.531Z,19.86
2017-03-03T05:30:36.170Z,19.79
2017-03-03T05:31:16.844Z,19.76
2017-03-03T05:31:57.469Z,19.86
2017-03-03T05:32:38.098Z,19.75
2017-03-03T05:33:18.775Z,19.84
2017-03-03T05:33:59.404Z,19.73
2017-03-03T05:34:40.027Z,19.68
2017-03-03T05:35:20.696Z,19.72
2017-03-03T05:36:01.322Z,19.78
2017-03-03T05:36:41.952Z,19.75
2017-03-03T05:37:22.652Z,19.78
2017-03-03T05:38:03.289Z,19.76
2017-03-03T05:38:43.923Z,19.8
2017-03-03T05:39:24.591Z,19.86
2017-03-03T05:40:05.216Z,19.79
2017-03-03T05:40:45.864Z,19.76
2017-03-03T05:41:26.547Z,19.83
2017-03-03T05:42:07.174Z,19.76
2017-03-03T05:42:47.820Z,19.76
2017-03-03T05:43:28.477Z,19.72
2017-03-03T05:44:09.107Z,19.76
2017-03-03T05:44:49.729Z,19.78
2017-03-03T05:45:30.392Z,19.72
2017-03-03T05:46:11.035Z,19.68
2017-03-03T05:46:51.663Z,19.76
2017-03-03T05:47:32.329Z,19.79
2017-03-03T05:48:12.954Z,19.76
2017-03-03T05:48:53.689Z,19.72
2017-03-03T05:49:34.367Z,19.79
2017-03-03T05:50:15.084Z,19.79
2017-03-03T05:50:55.757Z,19.79
2017-03-03T05:51:36.379Z,19.78
2017-03-03T05:52:17.008Z,19.8
2017-03-03T05:52:57.635Z,19.76
2017-03-03T05:53:38.317Z,19.83
2017-03-03T05:54:18.943Z,19.83
2017-03-03T05:54:59.573Z,19.83
2017-03-03T05:55:40.234Z,19.84
2017-03-03T05:56:20.948Z,19.72
2017-03-03T05:57:01.573Z,19.79
2017-03-03T05:57:42.199Z,19.75
2017-03-03T05:58:22.876Z,19.79
2017-03-03T05:59:03.501Z,19.75
2017-03-03T05:59:44.122Z,19.8
2017-03-03T06:00:24.816Z,19.78
2017-03-03T06:01:05.447Z,19.79
2017-03-03T06:01:46.104Z,19.69
2017-03-03T06:02:26.755Z,19.8
2017-03-03T06:03:07.403Z,19.84
2017-03-03T06:03:48.035Z,19.79
2017-03-03T06:04:28.674Z,19.79
2017-03-03T06:05:09.307Z,19.72
2017-03-03T06:05:49.970Z,19.75
2017-03-03T06:06:30.617Z,19.8
2017-03-03T06:07:11.244Z,19.76
2017-03-03T06:07:51.989Z,19.8
2017-03-03T06:08:32.731Z,19.76
2017-03-03T06:09:13.358Z,19.78
2017-03-03T06:09:53.988Z,19.79
2017-03-03T06:10:34.714Z,19.76
2017-03-03T06:11:15.385Z,19.83
2017-03-03T06:11:56.015Z,19.79
2017-03-03T06:12:36.643Z,19.76
2017-03-03T06:13:17.299Z,19.73
2017-03-03T06:13:57.927Z,19.69
2017-03-03T06:14:38.558Z,19.76
2017-03-03T06:15:19.232Z,19.79
2017-03-03T06:15:59.867Z,19.76
2017-03-03T06:16:40.497Z,19.73
2017-03-03T06:17:21.160Z,19.8
2017-03-03T06:18:01.802Z,19.76
2017-03-03T06:18:42.483Z,19.78
2017-03-03T06:19:23.130Z,19.79
2017-03-03T06:20:03.755Z,19.73
2017-03-03T06:20:44.465Z,19.78
2017-03-03T06:21:25.110Z,19.76
2017-03-03T06:22:05.743Z,19.78
2017-03-03T06:22:46.402Z,19.76
2017-03-03T06:23:27.093Z,19.72
2017-03-03T06:24:07.827Z,19.73
2017-03-03T06:24:48.469Z,19.84
2017-03-03T06:25:29.113Z,19.84
2017-03-03T06:26:09.741Z,19.79
2017-03-03T06:26:50.375Z,19.79
2017-03-03T06:27:31.016Z,19.83
2017-03-03T06:28:11.640Z,19.76
2017-03-03T06:28:52.275Z,19.79
2017-03-03T06:29:32.967Z,19.8
2017-03-03T06:30:13.593Z,19.76
2017-03-03T06:30:54.230Z,19.76
2017-03-03T06:31:34.862Z,19.79
2017-03-03T06:32:15.490Z,19.76
2017-03-03T06:32:56.114Z,19.8
2017-03-03T06:33:36.805Z,19.8
2017-03-03T06:34:17.437Z,19.78
2017-03-03T06:34:58.082Z,19.8
2017-03-03T06:35:38.693Z,19.76
2017-03-03T06:36:19.334Z,19.83
2017-03-03T06:36:59.956Z,19.76
2017-03-03T06:37:40.606Z,19.79
2017-03-03T06:38:21.262Z,19.72
2017-03-03T06:39:01.911Z,19.78
2017-03-03T06:39:42.566Z,19.78
2017-03-03T06:40:23.210Z,19.69
2017-03-03T06:41:03.835Z,19.79
2017-03-03T06:41:44.561Z,19.72
2017-03-03T06:42:25.254Z,19.76
2017-03-03T06:43:05.889Z,19.75
2017-03-03T06:43:46.545Z,19.75
2017-03-03T06:44:27.171Z,19.75
2017-03-03T06:45:07.809Z,19.7
2017-03-03T06:45:48.492Z,19.84
2017-03-03T06:46:29.205Z,19.83
2017-03-03T06:47:09.873Z,19.79
2017-03-03T06:47:50.510Z,19.76
2017-03-03T06:48:31.155Z,19.78
2017-03-03T06:49:11.801Z,19.78
2017-03-03T06:49:52.448Z,19.84
2017-03-03T06:50:33.168Z,19.68
2017-03-03T06:51:13.799Z,19.76
2017-03-03T06:51:54.427Z,19.72
2017-03-03T06:52:35.072Z,19.69
2017-03-03T06:53:15.784Z,19.76
2017-03-03T06:53:56.429Z,19.79
2017-03-03T06:54:37.069Z,19.78
2017-03-03T06:55:17.753Z,19.69
2017-03-03T06:55:58.391Z,19.76
2017-03-03T06:56:39.059Z,19.73
2017-03-03T06:57:19.720Z,19.7
2017-03-03T06:58:00.350Z,19.72
2017-03-03T06:58:40.980Z,19.72
2017-03-03T06:59:21.653Z,19.73
2017-03-03T07:00:02.402Z,19.75
2017-03-03T07:00:42.944Z,19.7
2017-03-03T07:01:23.645Z,19.69
2017-03-03T07:02:04.272Z,19.76
2017-03-03T07:02:44.954Z,19.69
2017-03-03T07:03:25.636Z,19.78
2017-03-03T07:04:06.355Z,19.65
2017-03-03T07:04:46.979Z,19.72
2017-03-03T07:05:27.680Z,19.75
2017-03-03T07:06:08.390Z,19.8
2017-03-03T07:06:49.030Z,19.75
2017-03-03T07:07:29.679Z,19.75
2017-03-03T07:08:10.329Z,19.75
2017-03-03T07:08:50.955Z,19.76
2017-03-03T07:09:31.602Z,19.7
2017-03-03T07:10:12.305Z,19.79
2017-03-03T07:10:53.027Z,19.75
2017-03-03T07:11:33.671Z,19.72
2017-03-03T07:12:14.310Z,19.69
2017-03-03T07:12:54.930Z,19.73
2017-03-03T07:13:35.562Z,19.75
2017-03-03T07:14:16.247Z,19.72
2017-03-03T07:14:56.885Z,19.69
2017-03-03T07:15:37.529Z,19.73
2017-03-03T07:16:18.159Z,19.69
2017-03-03T07:16:58.845Z,19.68
2017-03-03T07:17:39.474Z,19.69
2017-03-03T07:18:20.106Z,19.72
2017-03-03T07:19:00.738Z,19.7
2017-03-03T07:19:41.387Z,19.66
2017-03-03T07:20:22.060Z,19.69
2017-03-03T07:21:02.788Z,19.65
2017-03-03T07:21:43.409Z,19.7
2017-03-03T07:22:24.096Z,19.72
2017-03-03T07:23:04.748Z,19.78
2017-03-03T07:23:45.377Z,19.76
2017-03-03T07:24:26.076Z,19.76
2017-03-03T07:25:06.727Z,19.73
2017-03-03T07:25:47.364Z,19.75
2017-03-03T07:26:27.986Z,19.7
2017-03-03T07:27:08.657Z,19.65
2017-03-03T07:27:49.388Z,19.72
2017-03-03T07:28:29.926Z,19.76
2017-03-03T07:29:10.561Z,19.66
2017-03-03T07:29:51.212Z,19.69
2017-03-03T07:30:31.859Z,19.65
2017-03-03T07:31:12.557Z,19.73
2017-03-03T07:31:53.189Z,19.76
2017-03-03T07:32:33.814Z,19.72
2017-03-03T07:33:14.479Z,19.68
2017-03-03T07:33:55.110Z,19.69
2017-03-03T07:34:35.755Z,19.75
2017-03-03T07:35:16.515Z,19.72
2017-03-03T07:35:57.223Z,19.72
2017-03-03T07:36:37.852Z,19.63
2017-03-03T07:37:18.522Z,19.69
2017-03-03T07:37:59.173Z,19.68
2017-03-03T07:38:39.796Z,19.58
2017-03-03T07:39:20.526Z,19.68
2017-03-03T07:40:01.217Z,19.53
2017-03-03T07:40:41.899Z,19.6
2017-03-03T07:41:22.549Z,19.53
2017-03-03T07:42:03.191Z,19.57
2017-03-03T07:42:43.834Z,19.57
2017-03-03T07:43:24.465Z,19.61
2017-03-03T07:44:05.129Z,19.57
2017-03-03T07:44:45.763Z,19.53
2017-03-03T07:45:26.402Z,19.57
2017-03-03T07:46:07.080Z,19.66
2017-03-03T07:46:47.711Z,19.66
2017-03-03T07:47:28.342Z,19.68
2017-03-03T07:48:09.017Z,19.66
2017-03-03T07:48:49.639Z,19.68
2017-03-03T07:49:30.271Z,19.73
2017-03-03T07:50:10.941Z,19.72
2017-03-03T07:50:51.588Z,19.69
2017-03-03T07:51:32.223Z,19.69
2017-03-03T07:52:12.885Z,19.72
2017-03-03T07:52:53.584Z,19.65
2017-03-03T07:53:34.207Z,19.65
2017-03-03T07:54:14.939Z,19.63
2017-03-03T07:54:55.610Z,19.63
2017-03-03T07:55:36.248Z,19.57
2017-03-03T07:56:16.887Z,19.48
2017-03-03T07:56:57.599Z,19.61
2017-03-03T07:57:38.227Z,19.55
2017-03-03T07:58:18.862Z,19.57
2017-03-03T07:58:59.564Z,19.58
2017-03-03T07:59:40.194Z,19.55
2017-03-03T08:00:20.816Z,19.55
2017-03-03T08:01:01.489Z,19.54
2017-03-03T08:01:42.129Z,19.5
2017-03-03T08:02:22.763Z,19.58
2017-03-03T08:03:03.469Z,19.6
2017-03-03T08:03:44.182Z,19.58
2017-03-03T08:04:24.805Z,19.6
2017-03-03T08:05:05.475Z,19.61
2017-03-03T08:05:46.128Z,19.6
2017-03-03T08:06:26.756Z,19.53
2017-03-03T08:07:07.499Z,19.66
2017-03-03T08:07:48.123Z,19.66
2017-03-03T08:08:28.821Z,19.6
2017-03-03T08:09:09.391Z,19.6
2017-03-03T08:09:50.089Z,19.61
2017-03-03T08:10:30.719Z,19.57
2017-03-03T08:11:11.346Z,19.51
2017-03-03T08:11:52.024Z,19.58
2017-03-03T08:12:32.657Z,19.61
2017-03-03T08:13:13.282Z,19.6
2017-03-03T08:13:53.979Z,19.66
2017-03-03T08:14:34.610Z,19.61
2017-03-03T08:15:15.239Z,19.53
2017-03-03T08:15:55.940Z,19.61
2017-03-03T08:16:36.637Z,19.54
2017-03-03T08:17:17.261Z,19.53
2017-03-03T08:17:57.889Z,19.48
2017-03-03T08:18:38.616Z,19.53
2017-03-03T08:19:19.244Z,19.51
2017-03-03T08:19:59.914Z,19.51
2017-03-03T08:20:40.607Z,19.47
2017-03-03T08:21:21.232Z,19.5
2017-03-03T08:22:01.870Z,19.47
2017-03-03T08:22:42.513Z,19.53
2017-03-03T08:23:23.133Z,19.57
2017-03-03T08:24:03.821Z,19.51
2017-03-03T08:24:44.491Z,19.53
2017-03-03T08:25:25.127Z,19.55
2017-03-03T08:26:05.780Z,19.55
2017-03-03T08:26:46.467Z,19.58
2017-03-03T08:27:27.100Z,19.51
2017-03-03T08:28:07.724Z,19.65
2017-03-03T08:28:48.387Z,19.5
2017-03-03T08:29:29.013Z,19.51
2017-03-03T08:30:09.647Z,19.54
2017-03-03T08:30:50.314Z,19.5
2017-03-03T08:31:30.990Z,19.47
2017-03-03T08:32:11.623Z,19.5
2017-03-03T08:32:52.367Z,19.53
2017-03-03T08:33:33.053Z,19.53
2017-03-03T08:34:13.681Z,19.53
2017-03-03T08:34:54.335Z,19.53
2017-03-03T08:35:35.000Z,19.54
2017-03-03T08:36:15.627Z,19.6
2017-03-03T08:36:56.245Z,19.53
2017-03-03T08:37:36.935Z,19.48
2017-03-03T08:38:17.590Z,19.57
2017-03-03T08:38:58.237Z,19.5
2017-03-03T08:39:38.936Z,19.53
2017-03-03T08:40:19.560Z,19.57
2017-03-03T08:41:00.195Z,19.55
2017-03-03T08:41:40.898Z,19.51
2017-03-03T08:42:21.521Z,19.54
2017-03-03T08:43:02.149Z,19.6
2017-03-03T08:43:42.813Z,19.6
2017-03-03T08:44:23.458Z,19.57
2017-03-03T08:45:04.090Z,19.53
2017-03-03T08:45:44.794Z,19.5
2017-03-03T08:46:25.519Z,19.48
2017-03-03T08:47:06.140Z,19.51